Latest Coastal Weather Observations for Gabo Island

IDT60701

Issued at 8:22 am EDT Thursday 18 December 2014 (issued every 10 minutes, with the page automatically refreshed every 10 minutes)

About coastal observations | Map of coastal stations | Coastal observations for TAS | Marine services | Other Formats
Station Details ID: 084016 Name: GABO ISLAND LIGHTHOUSE Lat: -37.57 Lon: 149.92 Height: 15.2 m
Data from the previous 72 hours. | See also: Recent months at Gabo Island
Date/Time
EDT
Temp

°C
Wind Pressure Rain
since 9am
mm
Weather Cloud Vis
km
Sea
Height
m
Swell
Dir
 
Speed
knots
Gust
knots
hPa Trend Height
m
Period
s
Dir
18/08:00am 18.2 NNE 12 20 1008.1 - 0.0 - - - - - - -
18/07:30am 17.1 NNE 12 16 1008.3 - 0.0 - - - - - - -
18/07:00am 16.7 NNE 13 17 1008.2 - 0.0 - - - - - - -
18/06:30am 16.1 NNE 15 18 1008.1 - 0.0 - - - - - - -
18/06:00am 15.7 NNE 15 18 1008.1 - 0.0 - - - - - - -
18/05:30am 15.5 NNE 13 16 1008.3 - 0.0 - - - - - - -
18/05:00am 15.2 NNE 15 18 1008.1 - 0.0 - - - - - - -
18/04:30am 15.6 NNE 19 22 1007.8 - 0.0 - - - - - - -
18/04:00am 15.3 NNE 13 17 1008.1 - 0.0 - - - - - - -
18/03:30am 15.3 N 10 13 1008.5 - 0.0 - - - - - - -
18/03:00am 15.3 NNE 8 9 1009.0 - 0.0 Fine Mostly cloudy 40 <0.5 1.0 - S
18/02:30am 15.4 NNE 6 7 1009.1 - 0.0 - - - - - - -
18/02:00am 15.5 NNE 5 6 1009.4 - 0.0 - - - - - - -
18/01:30am 15.3 N 4 5 1009.9 - 0.0 - - - - - - -
18/01:00am 15.3 N 5 5 1010.3 - 0.0 - - - - - - -
18/12:30am 15.3 N 5 6 1010.7 - 0.0 - - - - - - -
18/12:00am 15.6 N 4 5 1010.9 - 0.0 - - - - - - -
 
Date/Time
EDT
Temp

°C
Wind Pressure Rain
since 9am
mm
Weather Cloud Vis
km
Sea
Height
m
Swell
Dir
 
Speed
knots
Gust
knots
hPa Trend Height
m
Period
s
Dir
17/11:30pm 15.6 N 3 4 1011.1 - 0.0 - - - - - - -
17/11:00pm 16.0 CALM 0 0 1011.2 - 0.0 - - - - - - -
17/10:30pm 16.4 SSW 3 3 1011.2 - 0.0 - - - - - - -
17/10:00pm 16.5 S 4 5 1011.1 - 0.0 - - - - - - -
17/09:30pm 16.5 S 5 6 1011.1 - 0.0 - - - - - - -
17/09:00pm 16.6 S 5 6 1010.8 - 0.0 Fine Mostly cloudy 40 1 1.0 - S
17/08:30pm 16.7 S 7 8 1010.5 - 0.0 - - - - - - -
17/08:00pm 16.8 S 7 8 1010.3 - 0.0 - - - - - - -
17/07:30pm 16.7 S 10 11 1009.6 - 0.0 - - - - - - -
17/07:00pm 16.8 S 12 14 1009.3 - 0.0 - - - - - - -
17/06:30pm 17.0 S 13 15 1009.2 - 0.0 - - - - - - -
17/06:00pm 18.1 S 15 17 1009.0 - 0.0 - - - - - - -
17/05:30pm 18.2 S 17 21 1008.7 - 0.0 - - - - - - -
17/05:00pm 18.0 SSW 18 21 1008.5 - 0.0 - - - - - - -
17/04:30pm 17.6 SSW 20 24 1008.5 - 0.0 - - - - - - -
17/04:00pm 17.4 SSW 20 25 1008.2 - 0.0 - - - - - - -
17/03:30pm 17.3 SSW 24 28 1008.3 - 0.0 - - - - - - -
17/03:00pm 17.2 SSW 26 29 1008.2 - 0.0 Fine Mostly clear 40 2 1.0 - E
17/02:30pm 17.1 SSW 26 29 1008.2 - 0.0 - - - - - - -
17/02:00pm 17.0 SSW 25 29 1008.1 - 0.0 - - - - - - -
17/01:30pm 16.9 SSW 27 31 1008.1 - 0.0 - - - - - - -
17/01:00pm 16.8 SW 28 33 1008.1 - 0.0 - - - - - - -
17/12:30pm 16.7 SW 29 33 1007.9 - 0.0 - - - - - - -
17/12:00pm 16.7 SW 31 34 1007.8 - 0.0 - - - - - - -
17/11:30am 16.8 SW 27 33 1007.6 - 0.0 - - - - - - -
17/11:00am 17.1 SW 25 29 1007.5 - 0.0 - - - - - - -
17/10:30am 16.7 SW 24 28 1007.2 - 0.0 - - - - - - -
17/10:00am 17.2 SW 23 27 1007.1 - 0.0 - - - - - - -
17/09:30am 16.9 SW 23 30 1007.1 - 0.0 - - - - - - -
17/09:00am 16.9 WSW 18 24 1007.1 - 0.2 Fine Mostly clear 25 1 1.0 - SW
17/08:30am 16.7 WSW 19 25 1007.1 - 0.2 - - - - - - -
17/08:00am 16.2 WSW 18 25 1006.8 - 0.2 - - - - - - -
17/07:30am 15.7 WSW 18 24 1006.3 - 0.2 - - - - - - -
17/07:00am 15.1 WSW 17 22 1005.9 - 0.2 - - - - - - -
17/06:30am 14.6 WSW 17 23 1005.2 - 0.2 - - - - - - -
17/06:00am 14.7 WSW 19 25 1004.5 - 0.2 - - - - - - -
17/05:30am 14.9 WSW 20 25 1004.1 - 0.2 - - - - - - -
17/05:00am 15.3 WSW 21 27 1003.6 - 0.2 - - - - - - -
17/04:30am 15.2 WSW 23 30 1003.0 - 0.2 - - - - - - -
17/04:00am 15.7 WSW 25 31 1002.5 - 0.2 - - - - - - -
17/03:30am 15.8 SW 24 29 1002.6 - 0.2 - - - - - - -
17/03:00am 16.1 SW 23 30 1002.2 - 0.2 Fine Partly cloudy 20 1 1.0 - NE
17/02:30am 15.9 WSW 26 34 1001.8 - 0.2 - - - - - - -
17/02:00am 16.2 SW 25 32 1001.4 - 0.2 - - - - - - -
17/01:30am 16.2 WSW 23 28 1001.4 - 0.2 - - - - - - -
17/01:00am 16.3 WSW 28 35 1000.9 - 0.2 - - - - - - -
17/12:30am 16.3 SW 27 34 1000.9 - 0.2 - - - - - - -
17/12:00am 16.8 WSW 28 33 1000.9 - 0.2 - - - - - - -
 
Date/Time
EDT
Temp

°C
Wind Pressure Rain
since 9am
mm
Weather Cloud Vis
km
Sea
Height
m
Swell
Dir
 
Speed
knots
Gust
knots
hPa Trend Height
m
Period
s
Dir
16/11:30pm 16.8 WSW 33 43 1000.4 - 0.2 - - - - - - -
16/11:07pm 16.9 SW 31 41 1000.2 - 0.2 - - - - - - -
16/11:00pm 17.0 WSW 30 36 1000.2 - 0.2 - - - - - - -
16/10:30pm 17.0 SW 34 42 1000.2 - 0.2 - - - - - - -
16/10:14pm 17.7 SW 28 38 1000.3 - 0.2 - - - - - - -
16/10:00pm 17.8 SW 28 34 1000.4 - 0.2 - - - - - - -
16/09:30pm 18.1 SW 32 38 999.3 - 0.2 - - - - - - -
16/09:23pm 18.2 SW 33 41 998.8 - 0.2 - - - - - - -
16/09:02pm 18.6 SW 35 61 996.8 - 0.2 - - - - - - -
16/09:00pm 18.9 SW 34 61 996.0 - 0.2 Squalls Partly cloudy 10 2 1.0 - NE
16/08:59pm 18.8 SW 51 61 995.5 - 0.2 - - - - - - -
16/08:58pm 18.9 SW 38 61 995.0 - 0.2 - - - - - - -
16/08:57pm 18.8 SW 34 51 995.7 - 0.2 - - - - - - -
16/08:55pm 19.0 SW 35 40 996.0 - 0.2 - - - - - - -
16/08:53pm 19.5 WNW 19 38 995.8 - 0.2 - - - - - - -
16/08:30pm 18.9 NNE 17 19 993.0 - 0.2 - - - - - - -
16/08:00pm 19.5 NNE 19 23 992.9 - 0.2 - - - - - - -
16/07:30pm 20.0 NNE 17 20 992.9 - 0.2 - - - - - - -
16/07:00pm 21.2 NNE 18 23 993.2 - 0.2 - - - - - - -
16/06:30pm 21.3 NNE 24 28 992.4 - 0.2 - - - - - - -
16/06:00pm 21.7 NNE 29 33 991.8 - 0.2 - - - - - - -
16/05:31pm 22.6 NNE 26 36 992.0 - 0.2 - - - - - - -
16/05:30pm 22.8 NNE 27 36 992.0 - 0.2 - - - - - - -
16/05:00pm 22.9 NNE 32 40 991.8 - 0.2 - - - - - - -
16/04:30pm 23.8 NNE 33 41 992.1 - 0.2 - - - - - - -
16/04:08pm 24.1 NNE 33 43 992.5 - 0.2 - - - - - - -
16/04:00pm 23.9 NNE 33 41 992.6 - 0.2 - - - - - - -
16/03:49pm 24.1 NNE 32 42 992.7 - 0.2 - - - - - - -
16/03:30pm 24.3 NNE 32 41 993.0 - 0.2 - - - - - - -
16/03:24pm 23.9 NNE 33 43 993.1 - 0.2 - - - - - - -
16/03:00pm 23.4 NNE 30 41 993.3 - 0.2 Haze Mostly clear 15 2 1.0 - NE
16/02:37pm 23.7 NNE 35 45 993.5 - 0.2 - - - - - - -
16/02:30pm 23.6 NNE 35 43 993.5 - 0.2 - - - - - - -
16/02:14pm 23.3 NNE 35 45 993.8 - 0.2 - - - - - - -
16/02:00pm 23.0 NNE 36 45 993.8 - 0.2 - - - - - - -
16/01:40pm 23.1 NNE 34 44 994.1 - 0.2 - - - - - - -
16/01:30pm 23.7 N 35 44 994.3 - 0.2 - - - - - - -
16/01:00pm 25.6 N 32 44 994.7 - 0.2 - - - - - - -
16/12:30pm 25.2 NNE 30 40 994.7 - 0.2 - - - - - - -
16/12:00pm 24.9 NNE 31 43 994.9 - 0.0 - - - - - - -
16/11:33am 24.2 NNE 30 40 995.2 - 0.0 - - - - - - -
16/11:30am 22.8 NNE 29 37 995.4 - 0.0 - - - - - - -
16/11:00am 21.9 NNE 30 36 995.8 - 0.0 - - - - - - -
16/10:30am 20.7 NNE 26 31 996.9 - 0.0 - - - - - - -
16/10:22am 20.6 NNE 30 40 997.2 - 0.0 - - - - - - -
16/10:00am 20.2 NNE 31 38 997.2 - 0.0 - - - - - - -
16/09:30am 18.7 NNE 30 35 998.5 - 0.0 - - - - - - -
16/09:00am 18.6 NNE 29 43 998.3 - 0.6 Thunder Mostly cloudy 20 2 1.0 - NE
16/08:58am 18.6 NNE 29 37 998.4 - 0.6 - - - - - - -
16/08:30am 19.2 NNE 22 26 999.6 - 0.6 - - - - - - -
16/08:28am 19.3 NNE 22 25 999.7 - 0.6 - - - - - - -
16/08:00am 19.0 NNE 9 13 1001.4 - 0.6 - - - - - - -
16/07:31am 19.4 N 23 33 1000.5 - 0.6 - - - - - - -
16/07:30am 19.3 NNE 24 33 1000.4 - 0.6 - - - - - - -
16/07:00am 19.1 NNE 30 37 999.3 - 0.6 - - - - - - -
16/06:30am 18.6 NNE 32 42 998.6 - 0.6 - - - - - - -
16/06:29am 18.5 NNE 32 40 998.8 - 0.6 - - - - - - -
16/06:00am 18.3 NNE 23 29 999.9 - 0.6 - - - - - - -
16/05:30am 18.6 NNE 28 35 1000.3 - 0.6 - - - - - - -
16/05:00am 18.8 NNE 30 41 999.6 - 0.6 - - - - - - -
16/04:41am 18.3 NNE 30 40 999.7 - 0.6 - - - - - - -
16/04:30am 18.3 NNE 33 40 999.4 - 0.6 - - - - - - -
16/04:11am 18.0 NNE 34 44 1000.3 - 0.6 - - - - - - -
16/04:00am 18.0 NNE 33 38 999.4 - 0.6 - - - - - - -
16/03:58am 18.1 NNE 32 37 1000.0 - 0.6 - - - - - - -
16/03:51am 18.4 NNE 20 31 1001.4 - 0.2 - - - - - - -
16/03:30am 18.5 NNE 20 25 1002.3 - 0.0 - - - - - - -
16/03:00am 18.2 NNE 17 21 1003.0 - 0.0 Lightning Cloudy 30 1 1.0 - NE
16/02:30am 18.2 NNE 15 18 1003.5 - 0.0 - - - - - - -
16/02:00am 18.5 NNE 17 19 1004.4 - 0.0 - - - - - - -
16/01:30am 19.0 N 17 22 1005.0 - 0.0 - - - - - - -
16/01:00am 19.4 NNE 26 32 1004.7 - 0.0 - - - - - - -
16/12:30am 18.9 NNE 29 35 1004.5 - 0.0 - - - - - - -
16/12:10am 18.8 NNE 29 39 1004.3 - 0.0 - - - - - - -
16/12:00am 18.9 NNE 29 37 1004.4 - 0.0 - - - - - - -
 
Date/Time
EDT
Temp

°C
Wind Pressure Rain
since 9am
mm
Weather Cloud Vis
km
Sea
Height
m
Swell
Dir
 
Speed
knots
Gust
knots
hPa Trend Height
m
Period
s
Dir
15/11:35pm 18.7 NNE 24 34 1004.6 - 0.0 - - - - - - -
15/11:30pm 18.5 NNE 22 27 1004.8 - 0.0 - - - - - - -
15/11:00pm 18.8 NNE 17 20 1005.5 - 0.0 - - - - - - -
15/10:30pm 19.1 NNE 22 26 1005.7 - 0.0 - - - - - - -
15/10:00pm 19.2 NNE 20 27 1006.3 - 0.0 - - - - - - -
15/09:34pm 19.0 NNE 18 28 1007.3 - 0.0 - - - - - - -
15/09:30pm 18.9 NNE 19 27 1007.7 - 0.0 - - - - - - -
15/09:21pm 19.2 NNE 23 33 1007.8 - 0.0 - - - - - - -
15/09:00pm 19.9 NNE 25 32 1007.3 - 0.0 Thunderstorm Mostly cloudy 20 2 1.0 - NE
15/08:56pm 19.9 NNE 27 32 1007.3 - 0.0 - - - - - - -
15/08:30pm 20.3 NNE 15 20 1008.9 - 0.0 - - - - - - -
15/08:02pm 20.1 NW 18 34 1010.6 - 0.0 - - - - - - -
15/08:00pm 20.0 NNE 27 34 1008.9 - 0.0 - - - - - - -
15/07:59pm 19.9 NNE 28 35 1008.1 - 0.0 - - - - - - -
15/07:30pm 19.7 NNE 31 39 1006.1 - 0.0 - - - - - - -
15/07:00pm 20.0 NNE 31 38 1005.4 - 0.0 - - - - - - -
15/06:30pm 20.5 NNE 30 37 1005.2 - 0.0 - - - - - - -
15/06:00pm 20.9 NNE 31 36 1005.3 - 0.0 - - - - - - -
15/05:30pm 21.1 NNE 31 36 1005.4 - 0.0 - - - - - - -
15/05:00pm 21.4 NNE 31 38 1005.6 - 0.0 - - - - - - -
15/04:30pm 21.5 NNE 31 36 1006.0 - 0.0 - - - - - - -
15/04:00pm 21.6 NNE 30 35 1006.3 - 0.0 - - - - - - -
15/03:30pm 21.8 NNE 30 35 1006.6 - 0.0 - - - - - - -
15/03:00pm 21.7 NE 26 31 1007.0 - 0.0 Haze Mostly clear 20 2 1.0 - NE
15/02:30pm 21.5 NE 27 33 1007.3 - 0.0 - - - - - - -
15/02:00pm 21.8 NE 25 29 1007.6 - 0.0 - - - - - - -
15/01:30pm 21.7 NE 27 32 1007.8 - 0.0 - - - - - - -
15/01:00pm 21.7 NE 25 30 1008.4 - 0.0 - - - - - - -
15/12:30pm 21.8 NE 22 26 1008.6 - 0.0 - - - - - - -
15/12:00pm 21.5 NE 22 24 1008.8 - 0.0 - - - - - - -
15/11:30am 21.2 NE 22 25 1008.8 - 0.0 - - - - - - -
15/11:00am 20.8 NE 20 23 1009.1 - 0.0 - - - - - - -
15/10:30am 21.2 NE 19 21 1009.2 - 0.0 - - - - - - -
15/10:00am 21.0 NE 17 19 1009.1 - 0.0 - - - - - - -
15/09:30am 21.3 NNE 9 13 1009.3 - 0.0 - - - - - - -
15/09:00am 21.3 NNE 11 13 1009.2 - 0.0 Fine Mostly clear 35 1 1.0 - NE
15/08:30am 20.5 NNE 16 19 1008.9 - 0.0 - - - - - - -

Other Formats:

Comma delimited format used in spreadsheet applications
http://www.bom.gov.au/fwo/IDT60701/IDT60701.94933.axf

JavaScript Object Notation format (JSON) in row-major order
http://www.bom.gov.au/fwo/IDT60701/IDT60701.94933.json